createdAt,value
2019-01-29T00:02:08.040Z,37.80
2019-01-29T00:04:34.237Z,35.13
2019-01-29T00:07:00.414Z,29.83
2019-01-29T00:09:26.741Z,13.53
2019-01-29T00:11:52.988Z,91.20
2019-01-29T00:14:19.297Z,69.20
2019-01-29T00:16:45.520Z,34.07
2019-01-29T00:19:11.813Z,42.40
2019-01-29T00:21:37.991Z,42.10
2019-01-29T00:24:04.205Z,380.00
2019-01-29T00:26:30.490Z,37.23
2019-01-29T00:28:56.674Z,295.97
2019-01-29T00:31:23.032Z,67.33
2019-01-29T00:33:49.206Z,27.27
2019-01-29T00:36:15.379Z,18.00
2019-01-29T00:38:41.977Z,33.83
2019-01-29T00:41:08.156Z,52.33
2019-01-29T00:43:34.348Z,34.93
2019-01-29T00:46:00.563Z,13.90
2019-01-29T00:48:26.851Z,13.10
2019-01-29T00:50:53.057Z,41.73
2019-01-29T00:53:19.292Z,44.27
2019-01-29T00:55:45.573Z,24.80
2019-01-29T00:58:11.867Z,53.83
2019-01-29T01:00:38.074Z,70.47
2019-01-29T01:03:04.252Z,62.53
2019-01-29T01:05:30.821Z,50.40
2019-01-29T01:07:57.051Z,43.97
2019-01-29T01:10:23.224Z,52.83
2019-01-29T01:12:49.404Z,53.33
2019-01-29T01:15:16.106Z,40.83
2019-01-29T01:17:42.364Z,60.37
2019-01-29T01:20:12.029Z,41.10
2019-01-29T01:22:38.231Z,70.90
2019-01-29T01:25:06.388Z,54.80
2019-01-29T01:27:32.540Z,173.20
2019-01-29T01:29:58.723Z,91.30
2019-01-29T01:32:24.888Z,87.80
2019-01-29T01:34:51.049Z,37.50
2019-01-29T01:37:17.230Z,118.10
2019-01-29T01:39:43.384Z,81.80
2019-01-29T01:42:09.543Z,76.80
2019-01-29T01:44:35.753Z,56.70
2019-01-29T01:47:01.911Z,174.20
2019-01-29T01:49:28.170Z,53.30
2019-01-29T01:51:54.363Z,74.67
2019-01-29T01:54:20.512Z,56.90
2019-01-29T01:56:46.771Z,57.03
2019-01-29T01:59:12.978Z,75.00
2019-01-29T02:01:39.232Z,59.70
2019-01-29T02:04:05.406Z,89.93
2019-01-29T02:06:31.603Z,60.47
2019-01-29T02:08:57.757Z,77.13
2019-01-29T02:11:23.922Z,135.57
2019-01-29T02:13:50.106Z,82.77
2019-01-29T02:16:16.404Z,111.87
2019-01-29T02:18:42.580Z,62.77
2019-01-29T02:21:08.760Z,132.83
2019-01-29T02:23:35.017Z,49.90
2019-01-29T02:26:01.173Z,46.83
2019-01-29T02:28:27.389Z,71.63
2019-01-29T02:30:53.552Z,100.27
2019-01-29T02:33:19.711Z,71.42
2019-01-29T02:35:45.896Z,54.27
2019-01-29T02:38:12.069Z,58.23
2019-01-29T02:40:38.235Z,88.00
2019-01-29T02:43:04.540Z,63.37
2019-01-29T02:45:30.711Z,71.00
2019-01-29T02:47:56.878Z,45.93
2019-01-29T02:50:23.171Z,95.47
2019-01-29T02:52:49.433Z,48.90
2019-01-29T02:55:15.600Z,84.47
2019-01-29T02:57:41.788Z,75.30
2019-01-29T03:00:11.652Z,67.80
2019-01-29T03:02:37.816Z,64.03
2019-01-29T03:05:06.820Z,59.93
2019-01-29T03:07:33.080Z,53.83
2019-01-29T03:09:59.345Z,87.07
2019-01-29T03:12:25.540Z,67.90
2019-01-29T03:14:51.698Z,58.70
2019-01-29T03:17:17.910Z,50.33
2019-01-29T03:19:44.092Z,53.77
2019-01-29T03:22:10.261Z,102.97
2019-01-29T03:24:36.410Z,121.03
2019-01-29T03:27:02.593Z,274.07
2019-01-29T03:29:28.758Z,65.20
2019-01-29T03:31:54.919Z,39.63
2019-01-29T03:34:21.119Z,88.20
2019-01-29T03:36:47.284Z,63.03
2019-01-29T03:39:13.448Z,106.80
2019-01-29T03:41:39.646Z,299.77
2019-01-29T03:44:05.790Z,59.70
2019-01-29T03:46:32.048Z,155.20
2019-01-29T03:48:58.237Z,147.67
2019-01-29T03:51:24.390Z,144.27
2019-01-29T03:53:50.714Z,186.60
2019-01-29T03:56:16.946Z,40.97
2019-01-29T03:58:43.103Z,39.30
2019-01-29T04:01:09.267Z,107.70
2019-01-29T04:03:35.577Z,46.43
2019-01-29T04:06:02.205Z,173.27
2019-01-29T04:08:28.464Z,203.03
2019-01-29T04:10:54.649Z,88.10
2019-01-29T04:13:20.810Z,50.63
2019-01-29T04:15:47.063Z,157.60
2019-01-29T04:18:13.420Z,249.93
2019-01-29T04:20:39.681Z,532.27
2019-01-29T04:23:05.846Z,399.00
2019-01-29T04:25:32.028Z,157.33
2019-01-29T04:27:58.293Z,253.70
2019-01-29T04:30:24.448Z,260.90
2019-01-29T04:32:50.748Z,217.73
2019-01-29T04:35:17.008Z,79.23
2019-01-29T04:37:43.270Z,93.27
2019-01-29T04:40:12.067Z,90.07
2019-01-29T04:42:38.226Z,213.10
2019-01-29T04:45:07.503Z,138.60
2019-01-29T04:47:33.727Z,53.77
2019-01-29T04:49:59.862Z,74.20
2019-01-29T04:52:26.026Z,179.77
2019-01-29T04:54:52.327Z,123.67
2019-01-29T04:57:18.600Z,167.93
2019-01-29T04:59:44.775Z,139.97
2019-01-29T05:02:10.943Z,202.77
2019-01-29T05:04:37.211Z,135.63
2019-01-29T05:07:03.370Z,78.07
2019-01-29T05:09:29.560Z,124.33
2019-01-29T05:11:55.707Z,106.03
2019-01-29T05:14:21.874Z,138.43
2019-01-29T05:16:48.068Z,196.40
2019-01-29T05:19:14.287Z,108.53
2019-01-29T05:21:40.446Z,198.20
2019-01-29T05:24:07.346Z,175.50
2019-01-29T05:26:33.698Z,263.73
2019-01-29T05:28:59.856Z,281.33
2019-01-29T05:31:26.040Z,314.17
2019-01-29T05:33:52.199Z,351.43
2019-01-29T05:36:19.838Z,223.00
2019-01-29T05:38:46.143Z,205.70
2019-01-29T05:41:12.313Z,184.63
2019-01-29T05:43:38.576Z,176.50
2019-01-29T05:46:04.775Z,131.93
2019-01-29T05:48:30.937Z,198.80
2019-01-29T05:50:57.204Z,183.47
2019-01-29T05:53:23.404Z,198.87
2019-01-29T05:55:49.561Z,287.47
2019-01-29T05:58:15.722Z,405.43
2019-01-29T06:00:42.012Z,398.17
2019-01-29T06:03:08.274Z,249.77
2019-01-29T06:05:34.539Z,324.37
2019-01-29T06:08:00.739Z,523.30
2019-01-29T06:10:26.903Z,182.10
2019-01-29T06:12:53.171Z,290.67
2019-01-29T06:15:20.956Z,190.37
2019-01-29T06:17:47.122Z,114.43
2019-01-29T06:20:19.050Z,165.27
2019-01-29T06:22:45.348Z,166.27
2019-01-29T06:25:11.608Z,137.47
2019-01-29T06:27:37.869Z,295.90
2019-01-29T06:30:07.664Z,145.57
2019-01-29T06:32:33.829Z,189.67
2019-01-29T06:34:59.998Z,114.33
2019-01-29T06:37:26.345Z,93.10
2019-01-29T06:39:52.606Z,102.87
2019-01-29T06:42:18.775Z,102.83
2019-01-29T06:44:44.955Z,106.20
2019-01-29T06:47:11.122Z,113.80
2019-01-29T06:49:37.390Z,91.63
2019-01-29T06:52:03.888Z,56.33
2019-01-29T06:54:34.217Z,57.63
2019-01-29T06:56:58.323Z,61.73
2019-01-29T06:59:24.527Z,54.10
2019-01-29T07:01:50.681Z,45.70
2019-01-29T07:04:16.958Z,39.93
2019-01-29T07:06:43.578Z,63.13
2019-01-29T07:09:09.846Z,53.23
2019-01-29T07:11:36.007Z,42.87
2019-01-29T07:14:02.209Z,41.87
2019-01-29T07:16:30.271Z,44.93
2019-01-29T07:18:58.336Z,55.97
2019-01-29T07:21:25.438Z,79.57
2019-01-29T07:23:51.711Z,53.67
2019-01-29T07:26:17.969Z,61.50
2019-01-29T07:28:44.298Z,55.00
2019-01-29T07:31:10.567Z,61.47
2019-01-29T07:33:36.743Z,64.80
2019-01-29T07:36:03.036Z,76.43
2019-01-29T07:38:29.300Z,78.47
2019-01-29T07:40:55.583Z,80.60
2019-01-29T07:43:21.881Z,86.23
2019-01-29T07:45:48.043Z,75.20
2019-01-29T07:48:14.906Z,113.70
2019-01-29T07:50:41.098Z,112.07
2019-01-29T07:53:07.265Z,99.00
2019-01-29T07:55:33.540Z,115.73
2019-01-29T07:57:59.858Z,128.40
2019-01-29T08:00:26.109Z,96.10
2019-01-29T08:02:52.273Z,99.10
2019-01-29T08:05:20.588Z,101.43
2019-01-29T08:07:46.610Z,96.67
2019-01-29T08:10:14.950Z,89.80
2019-01-29T08:12:41.145Z,79.67
2019-01-29T08:15:18.557Z,77.63
2019-01-29T08:17:44.758Z,88.57
2019-01-29T08:20:12.629Z,78.30
2019-01-29T08:22:38.919Z,90.03
2019-01-29T08:25:08.712Z,92.87
2019-01-29T08:27:34.873Z,89.43
2019-01-29T08:30:01.148Z,94.07
2019-01-29T08:32:27.460Z,40.63
2019-01-29T08:34:54.124Z,80.43
2019-01-29T08:37:20.384Z,88.47
2019-01-29T08:39:46.740Z,75.10
2019-01-29T08:42:12.997Z,91.63
2019-01-29T08:44:39.652Z,84.03
2019-01-29T08:47:05.962Z,99.27
2019-01-29T08:49:32.117Z,91.97
2019-01-29T08:51:58.280Z,80.70
2019-01-29T08:54:24.571Z,132.53
2019-01-29T08:56:50.734Z,123.10
2019-01-29T08:59:16.887Z,70.70
2019-01-29T09:01:43.085Z,59.90
2019-01-29T09:04:09.348Z,31.33
2019-01-29T09:06:37.433Z,64.80
2019-01-29T09:09:07.737Z,58.67
2019-01-29T09:11:33.917Z,73.20
2019-01-29T09:14:00.172Z,48.50
2019-01-29T09:16:26.484Z,66.67
2019-01-29T09:18:52.631Z,82.50
2019-01-29T09:21:18.804Z,89.50
2019-01-29T09:23:45.009Z,69.07
2019-01-29T09:26:11.270Z,66.90
2019-01-29T09:28:37.425Z,69.13
2019-01-29T09:31:05.420Z,40.03
2019-01-29T09:33:31.581Z,38.07
2019-01-29T09:35:57.913Z,69.80
2019-01-29T09:38:24.067Z,43.07
2019-01-29T09:40:52.072Z,69.77
2019-01-29T09:43:18.265Z,61.23
2019-01-29T09:45:46.824Z,56.47
2019-01-29T09:48:12.991Z,52.77
2019-01-29T09:50:39.160Z,55.87
2019-01-29T09:53:05.460Z,65.30
2019-01-29T09:55:31.927Z,71.93
2019-01-29T09:57:58.187Z,60.93
2019-01-29T10:00:27.088Z,113.87
2019-01-29T10:02:53.390Z,90.53
2019-01-29T10:05:19.679Z,64.33
2019-01-29T10:07:46.114Z,58.70
2019-01-29T10:10:13.019Z,84.07
2019-01-29T10:12:39.201Z,68.40
2019-01-29T10:15:11.845Z,56.27
2019-01-29T10:17:38.491Z,73.37
2019-01-29T10:20:06.959Z,119.43
2019-01-29T10:22:33.257Z,90.27
2019-01-29T10:24:59.459Z,82.63
2019-01-29T10:27:25.763Z,77.50
2019-01-29T10:29:53.908Z,53.07
2019-01-29T10:32:20.209Z,48.83
2019-01-29T10:34:46.366Z,28.23
2019-01-29T10:37:12.660Z,49.33
2019-01-29T10:39:38.945Z,42.30
2019-01-29T10:42:05.990Z,44.47
2019-01-29T10:44:32.509Z,42.00
2019-01-29T10:46:58.769Z,41.67
2019-01-29T10:49:24.929Z,52.87
2019-01-29T10:51:51.261Z,59.03
2019-01-29T10:54:17.566Z,43.53
2019-01-29T10:56:43.836Z,28.90
2019-01-29T10:59:10.137Z,24.00
2019-01-29T11:01:36.407Z,35.03
2019-01-29T11:04:03.171Z,28.53
2019-01-29T11:06:29.375Z,33.83
2019-01-29T11:08:55.540Z,22.03
2019-01-29T11:11:21.691Z,25.70
2019-01-29T11:13:47.887Z,38.97
2019-01-29T11:16:14.548Z,53.30
2019-01-29T11:18:40.807Z,31.43
2019-01-29T11:21:07.265Z,69.33
2019-01-29T11:23:33.519Z,50.30
2019-01-29T11:25:59.878Z,48.20
2019-01-29T11:28:26.187Z,31.03
2019-01-29T11:30:52.507Z,21.93
2019-01-29T11:33:18.640Z,22.10
2019-01-29T11:35:44.829Z,32.23
2019-01-29T11:38:11.122Z,40.57
2019-01-29T11:40:37.277Z,18.80
2019-01-29T11:43:04.210Z,24.50
2019-01-29T11:45:33.571Z,36.83
2019-01-29T11:47:59.741Z,49.30
2019-01-29T11:50:25.956Z,33.07
2019-01-29T11:52:52.109Z,45.53
2019-01-29T11:55:18.303Z,39.97
2019-01-29T11:57:44.499Z,45.47
2019-01-29T12:00:15.975Z,24.63
2019-01-29T12:02:42.144Z,25.57
2019-01-29T12:05:08.538Z,34.97
2019-01-29T12:07:35.110Z,36.30
2019-01-29T12:10:01.275Z,43.43
2019-01-29T12:12:27.584Z,46.47
2019-01-29T12:14:53.859Z,43.27
2019-01-29T12:17:20.025Z,31.20
2019-01-29T12:19:46.327Z,31.67
2019-01-29T12:22:12.488Z,25.47
2019-01-29T12:24:38.664Z,41.37
2019-01-29T12:27:05.020Z,50.23
2019-01-29T12:29:31.293Z,43.17
2019-01-29T12:31:57.459Z,33.67
2019-01-29T12:34:23.655Z,40.57
2019-01-29T12:36:50.205Z,41.47
2019-01-29T12:39:16.465Z,44.87
2019-01-29T12:41:42.658Z,28.17
2019-01-29T12:44:08.836Z,35.97
2019-01-29T12:46:35.090Z,33.83
2019-01-29T12:49:03.368Z,55.50
2019-01-29T12:51:31.462Z,29.73
2019-01-29T12:53:57.769Z,53.20
2019-01-29T12:56:24.032Z,30.93
2019-01-29T12:58:50.196Z,28.57
2019-01-29T13:01:16.465Z,22.53
2019-01-29T13:03:42.765Z,35.67
2019-01-29T13:06:09.029Z,52.67
2019-01-29T13:08:35.707Z,65.40
2019-01-29T13:11:02.110Z,69.77
2019-01-29T13:13:28.283Z,29.00
2019-01-29T13:15:54.557Z,52.77
2019-01-29T13:18:20.984Z,46.87
2019-01-29T13:20:47.259Z,46.83
2019-01-29T13:23:13.521Z,67.87
2019-01-29T13:25:39.827Z,63.80
2019-01-29T13:28:06.053Z,67.57
2019-01-29T13:30:34.231Z,72.00
2019-01-29T13:33:00.694Z,53.43
2019-01-29T13:35:30.557Z,59.47
2019-01-29T13:37:56.713Z,61.03
2019-01-29T13:40:23.028Z,57.60
2019-01-29T13:42:49.340Z,48.60
2019-01-29T13:45:16.295Z,45.97
2019-01-29T13:47:42.488Z,45.10
2019-01-29T13:50:12.403Z,51.40
2019-01-29T13:52:38.586Z,49.90
2019-01-29T13:55:08.489Z,83.63
2019-01-29T13:57:34.754Z,82.70
2019-01-29T14:00:01.025Z,63.40
2019-01-29T14:02:27.239Z,45.97
2019-01-29T14:04:53.515Z,38.00
2019-01-29T14:07:19.700Z,42.57
2019-01-29T14:09:45.983Z,30.47
2019-01-29T14:12:12.266Z,73.00
2019-01-29T14:14:38.923Z,56.20
2019-01-29T14:17:05.224Z,59.07
2019-01-29T14:19:31.399Z,77.87
2019-01-29T14:21:57.671Z,83.60
2019-01-29T14:24:23.977Z,72.47
2019-01-29T14:26:50.140Z,59.00
2019-01-29T14:29:16.301Z,60.20
2019-01-29T14:31:42.606Z,65.80
2019-01-29T14:34:08.772Z,68.27
2019-01-29T14:36:34.935Z,69.10
2019-01-29T14:39:16.766Z,68.43
2019-01-29T14:41:43.030Z,56.83
2019-01-29T14:44:10.395Z,38.03
2019-01-29T14:46:36.792Z,49.50
2019-01-29T14:49:03.151Z,55.07
2019-01-29T14:51:29.418Z,51.57
2019-01-29T14:53:55.726Z,43.47
2019-01-29T14:56:22.264Z,58.23
2019-01-29T14:58:51.211Z,34.23
2019-01-29T15:01:17.620Z,44.47
2019-01-29T15:03:43.894Z,30.30
2019-01-29T15:06:10.281Z,52.50
2019-01-29T15:08:38.606Z,65.03
2019-01-29T15:11:06.628Z,65.70
2019-01-29T15:13:32.884Z,52.00
2019-01-29T15:16:06.786Z,68.23
2019-01-29T15:18:46.710Z,56.13
2019-01-29T15:21:12.902Z,40.23
2019-01-29T15:23:39.084Z,55.60
2019-01-29T15:26:05.356Z,67.07
2019-01-29T15:28:31.655Z,68.37
2019-01-29T15:30:58.868Z,86.60
2019-01-29T15:33:25.029Z,56.70
2019-01-29T15:35:51.233Z,63.47
2019-01-29T15:38:17.510Z,55.90
2019-01-29T15:40:43.678Z,79.33
2019-01-29T15:43:09.970Z,87.93
2019-01-29T15:45:36.334Z,89.63
2019-01-29T15:48:02.604Z,79.90
2019-01-29T15:50:31.142Z,87.00
2019-01-29T15:52:57.492Z,81.53
2019-01-29T15:55:23.678Z,58.80
2019-01-29T15:57:50.076Z,69.23
2019-01-29T16:00:28.181Z,66.60
2019-01-29T16:02:54.367Z,65.20
2019-01-29T16:05:25.666Z,50.00
2019-01-29T16:07:51.931Z,70.63
2019-01-29T16:10:40.140Z,74.97
2019-01-29T16:13:06.284Z,92.20
2019-01-29T16:15:32.653Z,75.40
2019-01-29T16:17:59.053Z,61.07
2019-01-29T16:20:25.638Z,73.43
2019-01-29T16:22:51.805Z,80.40
2019-01-29T16:25:23.865Z,97.00
2019-01-29T16:27:50.238Z,100.73
2019-01-29T16:30:19.318Z,72.30
2019-01-29T16:32:46.020Z,74.40
2019-01-29T16:35:15.597Z,71.63
2019-01-29T16:37:43.052Z,111.57
2019-01-29T16:40:13.006Z,64.93
2019-01-29T16:42:39.178Z,66.10
2019-01-29T16:45:08.945Z,48.73
2019-01-29T16:47:35.164Z,228.63
2019-01-29T16:50:01.321Z,96.37
2019-01-29T16:52:27.499Z,144.27
2019-01-29T16:54:53.792Z,70.63
2019-01-29T16:57:19.945Z,71.90
2019-01-29T16:59:46.105Z,65.40
2019-01-29T17:02:12.306Z,58.07
2019-01-29T17:04:38.468Z,63.07
2019-01-29T17:07:04.743Z,64.77
2019-01-29T17:09:30.944Z,62.57
2019-01-29T17:11:57.118Z,79.67
2019-01-29T17:14:23.280Z,64.10
2019-01-29T17:16:49.488Z,60.47
2019-01-29T17:19:15.744Z,64.57
2019-01-29T17:21:41.909Z,53.30
2019-01-29T17:24:08.113Z,52.37
2019-01-29T17:26:34.286Z,117.43
2019-01-29T17:29:00.551Z,93.97
2019-01-29T17:31:29.978Z,141.20
2019-01-29T17:33:56.240Z,63.77
2019-01-29T17:36:22.417Z,129.90
2019-01-29T17:38:48.716Z,76.07
2019-01-29T17:41:14.989Z,56.20
2019-01-29T17:43:41.160Z,52.87
2019-01-29T17:46:07.731Z,51.77
2019-01-29T17:48:35.863Z,71.73
2019-01-29T17:51:03.604Z,69.23
2019-01-29T17:53:29.915Z,70.90
2019-01-29T17:55:56.172Z,79.67
2019-01-29T17:58:22.445Z,90.77
2019-01-29T18:00:50.553Z,98.77
2019-01-29T18:03:16.719Z,89.67
2019-01-29T18:05:43.093Z,103.50
2019-01-29T18:08:09.436Z,75.30
2019-01-29T18:10:35.710Z,85.10
2019-01-29T18:13:01.988Z,85.57
2019-01-29T18:15:29.593Z,74.57
2019-01-29T18:17:56.254Z,76.47
2019-01-29T18:20:22.426Z,79.47
2019-01-29T18:22:48.745Z,88.17
2019-01-29T18:25:18.680Z,88.90
2019-01-29T18:27:45.057Z,91.10
2019-01-29T18:30:17.521Z,81.57
2019-01-29T18:32:43.803Z,79.13
2019-01-29T18:35:10.125Z,81.40
2019-01-29T18:37:36.427Z,87.43
2019-01-29T18:40:14.768Z,79.90
2019-01-29T18:42:40.990Z,107.53
2019-01-29T18:45:09.565Z,94.43
2019-01-29T18:47:35.877Z,70.20
2019-01-29T18:50:05.492Z,66.73
2019-01-29T18:52:31.775Z,72.67
2019-01-29T18:54:57.938Z,78.57
2019-01-29T18:57:24.267Z,88.60
2019-01-29T18:59:50.600Z,85.10
2019-01-29T19:02:16.747Z,90.90
2019-01-29T19:04:43.028Z,100.10
2019-01-29T19:07:09.294Z,113.67
2019-01-29T19:09:35.565Z,109.80
2019-01-29T19:12:03.816Z,98.17
2019-01-29T19:14:30.129Z,115.97
2019-01-29T19:16:56.296Z,135.63
2019-01-29T19:19:22.595Z,124.07
2019-01-29T19:21:48.746Z,132.80
2019-01-29T19:24:15.027Z,134.70
2019-01-29T19:26:41.319Z,138.43
2019-01-29T19:29:07.594Z,140.00
2019-01-29T19:31:33.862Z,144.87
2019-01-29T19:34:00.154Z,148.77
2019-01-29T19:36:26.329Z,149.37
2019-01-29T19:38:52.599Z,156.27
2019-01-29T19:41:18.807Z,151.23
2019-01-29T19:43:44.964Z,117.23
2019-01-29T19:46:11.227Z,108.63
2019-01-29T19:48:37.550Z,112.73
2019-01-29T19:51:03.804Z,113.60
2019-01-29T19:53:30.092Z,274.87
2019-01-29T19:55:56.283Z,120.10
2019-01-29T19:58:31.791Z,104.33
2019-01-29T20:00:50.628Z,126.50
2019-01-29T20:03:16.953Z,132.40
2019-01-29T20:05:43.129Z,145.90
2019-01-29T20:08:14.582Z,166.15
2019-01-29T20:10:41.001Z,143.23
2019-01-29T20:13:07.270Z,98.53
2019-01-29T20:15:33.570Z,131.33
2019-01-29T20:17:59.867Z,114.50
2019-01-29T20:20:28.933Z,126.10
2019-01-29T20:22:55.088Z,137.53
2019-01-29T20:25:21.405Z,174.83
2019-01-29T20:27:47.646Z,144.67
2019-01-29T20:30:17.157Z,132.47
2019-01-29T20:32:52.891Z,112.47
2019-01-29T20:35:11.648Z,119.83
2019-01-29T20:37:37.922Z,109.97
2019-01-29T20:40:10.906Z,146.60
2019-01-29T20:42:37.083Z,223.77
2019-01-29T20:45:06.569Z,206.63
2019-01-29T20:47:32.884Z,192.00
2019-01-29T20:49:59.169Z,161.60
2019-01-29T20:52:25.429Z,145.37
2019-01-29T20:54:51.665Z,142.73
2019-01-29T20:57:17.946Z,176.90
2019-01-29T20:59:44.238Z,191.00
2019-01-29T21:02:10.435Z,247.67
2019-01-29T21:04:36.714Z,365.30
2019-01-29T21:07:03.300Z,323.80
2019-01-29T21:09:29.602Z,389.57
2019-01-29T21:11:55.906Z,230.10
2019-01-29T21:14:22.166Z,410.60
2019-01-29T21:16:48.462Z,196.50
2019-01-29T21:19:14.649Z,333.30
2019-01-29T21:21:41.121Z,215.70
2019-01-29T21:24:07.418Z,248.67
2019-01-29T21:26:34.685Z,428.30
2019-01-29T21:29:03.189Z,429.47
2019-01-29T21:31:29.062Z,294.20
2019-01-29T21:33:56.098Z,411.37
2019-01-29T21:36:22.257Z,422.13
2019-01-29T21:38:50.005Z,359.30
2019-01-29T21:41:16.160Z,230.70
2019-01-29T21:43:42.439Z,469.70
2019-01-29T21:46:08.654Z,667.77
2019-01-29T21:48:34.913Z,326.20
2019-01-29T21:51:01.070Z,360.83
2019-01-29T21:53:27.281Z,389.60
2019-01-29T21:55:53.562Z,455.17
2019-01-29T21:58:19.828Z,425.53
2019-01-29T22:00:46.045Z,222.80
2019-01-29T22:03:12.515Z,200.90
2019-01-29T22:05:38.785Z,266.10
2019-01-29T22:08:06.275Z,272.43
2019-01-29T22:10:32.540Z,237.17
2019-01-29T22:12:59.137Z,190.07
2019-01-29T22:15:25.438Z,248.10
2019-01-29T22:17:51.608Z,525.83
2019-01-29T22:20:19.575Z,481.10
2019-01-29T22:22:45.769Z,210.73
2019-01-29T22:25:16.804Z,248.40
2019-01-29T22:27:42.961Z,339.77
2019-01-29T22:30:21.575Z,267.03
2019-01-29T22:32:47.746Z,174.73
2019-01-29T22:35:13.934Z,207.40
2019-01-29T22:37:40.123Z,322.07
2019-01-29T22:40:12.954Z,257.70
2019-01-29T22:42:39.117Z,309.43
2019-01-29T22:45:09.017Z,288.27
2019-01-29T22:47:35.282Z,331.57
2019-01-29T22:50:01.549Z,472.53
2019-01-29T22:52:27.859Z,551.87
2019-01-29T22:54:53.998Z,410.17
2019-01-29T22:57:20.251Z,450.43
2019-01-29T22:59:46.462Z,200.97
2019-01-29T23:02:12.726Z,262.40
2019-01-29T23:04:38.993Z,196.67
2019-01-29T23:07:05.282Z,119.70
2019-01-29T23:09:31.565Z,107.90
2019-01-29T23:11:57.830Z,113.90
2019-01-29T23:14:24.154Z,115.90
2019-01-29T23:16:50.316Z,103.43
2019-01-29T23:19:16.578Z,81.40
2019-01-29T23:21:42.780Z,170.50
2019-01-29T23:24:09.040Z,234.00
2019-01-29T23:26:35.202Z,237.40
2019-01-29T23:29:01.491Z,354.83
2019-01-29T23:31:27.639Z,418.00
2019-01-29T23:33:53.915Z,330.43
2019-01-29T23:36:20.114Z,271.30
2019-01-29T23:38:47.542Z,274.30
2019-01-29T23:41:14.677Z,163.57
2019-01-29T23:43:40.877Z,206.63
2019-01-29T23:46:07.132Z,175.13
2019-01-29T23:48:33.292Z,172.07
2019-01-29T23:50:59.488Z,191.27
2019-01-29T23:53:25.750Z,183.43
2019-01-29T23:55:51.905Z,185.13
2019-01-29T23:58:18.090Z,199.93
